createdAt,value
2022-12-16T00:01:51.235Z,-4.10
2022-12-16T00:04:20.364Z,-4.00
2022-12-16T00:06:48.554Z,-3.90
2022-12-16T00:09:16.892Z,-3.90
2022-12-16T00:11:45.076Z,-3.80
2022-12-16T00:14:14.723Z,-3.70
2022-12-16T00:16:43.088Z,-3.60
2022-12-16T00:19:11.379Z,-3.60
2022-12-16T00:21:39.551Z,-3.50
2022-12-16T00:24:07.788Z,-3.40
2022-12-16T00:26:37.084Z,-3.30
2022-12-16T00:29:06.326Z,-3.30
2022-12-16T00:31:35.865Z,-3.20
2022-12-16T00:34:04.190Z,-3.10
2022-12-16T00:36:32.402Z,-3.10
2022-12-16T00:39:00.656Z,-3.00
2022-12-16T00:41:28.826Z,-3.00
2022-12-16T00:43:57.022Z,-2.90
2022-12-16T00:46:25.251Z,-2.90
2022-12-16T00:48:54.986Z,-2.80
2022-12-16T00:51:23.629Z,-2.80
2022-12-16T00:53:51.765Z,-2.70
2022-12-16T00:56:20.967Z,-2.70
2022-12-16T00:58:49.212Z,-2.70
2022-12-16T01:01:17.501Z,-2.70
2022-12-16T01:03:45.903Z,-2.60
2022-12-16T01:06:17.485Z,-2.50
2022-12-16T01:08:48.625Z,-2.40
2022-12-16T01:11:18.041Z,-2.40
2022-12-16T01:13:47.118Z,-2.40
2022-12-16T01:16:15.456Z,-2.30
2022-12-16T01:18:43.952Z,-2.30
2022-12-16T01:21:15.637Z,-2.30
2022-12-16T01:23:44.006Z,-2.20
2022-12-16T01:26:16.756Z,-2.20
2022-12-16T01:28:45.309Z,-2.20
2022-12-16T01:31:13.547Z,-2.10
2022-12-16T01:33:41.743Z,-2.10
2022-12-16T01:36:10.923Z,-2.00
2022-12-16T01:38:42.651Z,-2.00
2022-12-16T01:41:11.902Z,-1.90
2022-12-16T01:43:41.517Z,-1.90
2022-12-16T01:46:16.153Z,-1.80
2022-12-16T01:48:48.403Z,-1.80
2022-12-16T01:51:22.497Z,-1.80
2022-12-16T01:53:55.791Z,-1.80
2022-12-16T01:56:26.465Z,-1.80
2022-12-16T01:58:57.201Z,-1.70
2022-12-16T02:01:25.634Z,-1.70
2022-12-16T02:03:55.328Z,-1.70
2022-12-16T02:06:23.846Z,-1.70
2022-12-16T02:08:57.937Z,-1.70
2022-12-16T02:11:51.930Z,-1.60
2022-12-16T02:14:38.987Z,-1.60
2022-12-16T02:17:14.006Z,-1.50
2022-12-16T02:20:10.153Z,-1.50
2022-12-16T02:22:53.707Z,-1.50
2022-12-16T02:25:48.099Z,-1.40
2022-12-16T02:28:33.560Z,-1.40
2022-12-16T02:31:20.271Z,-1.50
2022-12-16T02:34:07.129Z,-1.50
2022-12-16T02:36:48.376Z,-1.50
2022-12-16T02:39:23.054Z,-1.60
2022-12-16T02:41:58.569Z,-1.70
2022-12-16T02:44:33.943Z,-1.70
2022-12-16T02:47:03.751Z,-1.80
2022-12-16T02:49:49.797Z,-1.80
2022-12-16T02:52:21.334Z,-1.80
2022-12-16T02:54:51.869Z,-1.80
2022-12-16T02:57:47.066Z,-1.80
2022-12-16T03:00:19.281Z,-1.80
2022-12-16T03:02:57.522Z,-1.80
2022-12-16T03:05:31.249Z,-1.90
2022-12-16T03:08:03.109Z,-1.90
2022-12-16T03:10:38.739Z,-1.90
2022-12-16T03:13:08.422Z,-1.90
2022-12-16T03:15:37.475Z,-1.90
2022-12-16T03:18:10.683Z,-1.80
2022-12-16T03:20:44.966Z,-1.80
2022-12-16T03:23:18.236Z,-1.80
2022-12-16T03:25:49.574Z,-1.80
2022-12-16T03:28:32.342Z,-1.80
2022-12-16T03:31:06.935Z,-1.80
2022-12-16T03:33:42.767Z,-1.80
2022-12-16T03:36:15.274Z,-1.80
2022-12-16T03:38:46.115Z,-1.70
2022-12-16T03:41:15.987Z,-1.70
2022-12-16T03:43:44.975Z,-1.70
2022-12-16T03:46:14.128Z,-1.60
2022-12-16T03:48:51.233Z,-1.50
2022-12-16T03:51:20.106Z,-1.50
2022-12-16T03:53:48.514Z,-1.40
2022-12-16T03:56:16.865Z,-1.30
2022-12-16T03:58:46.976Z,-1.30
2022-12-16T04:01:15.591Z,-1.20
2022-12-16T04:03:43.861Z,-1.10
2022-12-16T04:06:13.496Z,-1.00
2022-12-16T04:08:41.684Z,-1.00
2022-12-16T04:11:27.495Z,-1.00
2022-12-16T04:14:13.037Z,-0.90
2022-12-16T04:16:58.538Z,-0.80
2022-12-16T04:19:47.019Z,-0.80
2022-12-16T04:22:38.277Z,-0.80
2022-12-16T04:25:10.732Z,-0.80
2022-12-16T04:27:38.955Z,-0.80
2022-12-16T04:30:20.271Z,-0.80
2022-12-16T04:33:09.155Z,-0.80
2022-12-16T04:36:09.673Z,-0.70
2022-12-16T04:38:53.602Z,-0.70
2022-12-16T04:41:39.259Z,-0.60
2022-12-16T04:44:25.482Z,-0.60
2022-12-16T04:47:11.055Z,-0.60
2022-12-16T04:49:56.946Z,-0.50
2022-12-16T04:52:43.236Z,-0.50
2022-12-16T04:55:30.330Z,-0.50
2022-12-16T04:58:18.043Z,-0.50
2022-12-16T05:01:04.447Z,-0.40
2022-12-16T05:03:51.104Z,-0.40
2022-12-16T05:06:37.085Z,-0.40
2022-12-16T05:09:23.680Z,-0.40
2022-12-16T05:12:11.552Z,-0.40
2022-12-16T05:14:57.038Z,-0.30
2022-12-16T05:17:42.975Z,-0.30
2022-12-16T05:20:29.258Z,-0.30
2022-12-16T05:23:30.010Z,-0.30
2022-12-16T05:26:16.099Z,-0.20
2022-12-16T05:29:03.218Z,-0.20
2022-12-16T05:31:48.928Z,-0.20
2022-12-16T05:34:34.399Z,-0.20
2022-12-16T05:37:19.790Z,-0.10
2022-12-16T05:40:05.399Z,-0.10
2022-12-16T05:42:50.987Z,-0.10
2022-12-16T05:45:37.284Z,-0.10
2022-12-16T05:48:22.813Z,-0.10
2022-12-16T05:51:23.955Z,0.00
2022-12-16T05:54:09.836Z,0.00
2022-12-16T05:56:55.794Z,0.10
2022-12-16T05:59:41.429Z,0.10
2022-12-16T06:02:28.706Z,0.10
2022-12-16T06:05:14.453Z,0.10
2022-12-16T06:08:00.098Z,0.00
2022-12-16T06:10:45.580Z,0.10
2022-12-16T06:13:31.382Z,0.00
2022-12-16T06:16:17.120Z,0.00
2022-12-16T06:19:04.321Z,0.00
2022-12-16T06:21:49.917Z,0.10
2022-12-16T06:24:35.548Z,0.10
2022-12-16T06:27:20.916Z,0.20
2022-12-16T06:30:06.301Z,0.10
2022-12-16T06:32:51.711Z,0.20
2022-12-16T06:35:41.044Z,0.20
2022-12-16T06:38:26.821Z,0.20
2022-12-16T06:41:11.556Z,0.20
2022-12-16T06:43:57.187Z,0.40
2022-12-16T06:46:41.945Z,0.30
2022-12-16T06:49:27.613Z,0.30
2022-12-16T06:52:14.637Z,0.30
2022-12-16T06:55:00.224Z,0.40
2022-12-16T06:57:45.814Z,0.40
2022-12-16T07:00:43.378Z,0.40
2022-12-16T07:03:34.082Z,0.40
2022-12-16T07:06:21.414Z,0.40
2022-12-16T07:09:08.441Z,0.50
2022-12-16T07:12:02.455Z,0.50
2022-12-16T07:14:48.159Z,0.50
2022-12-16T07:17:33.557Z,0.50
2022-12-16T07:20:19.084Z,0.50
2022-12-16T07:23:13.145Z,0.50
2022-12-16T07:26:04.906Z,0.50
2022-12-16T07:28:50.335Z,0.50
2022-12-16T07:31:32.562Z,0.60
2022-12-16T07:34:18.147Z,0.60
2022-12-16T07:37:03.585Z,0.60
2022-12-16T07:39:54.474Z,0.60
2022-12-16T07:42:42.495Z,0.60
2022-12-16T07:45:29.191Z,0.60
2022-12-16T07:48:11.655Z,0.60
2022-12-16T07:50:57.443Z,0.60
2022-12-16T07:53:44.036Z,0.70
2022-12-16T07:56:30.220Z,0.60
2022-12-16T07:59:17.355Z,0.70
2022-12-16T08:02:02.398Z,0.80
2022-12-16T08:04:48.223Z,0.80
2022-12-16T08:07:33.748Z,0.90
2022-12-16T08:10:19.471Z,1.00
2022-12-16T08:13:05.053Z,0.90
2022-12-16T08:15:52.169Z,1.10
2022-12-16T08:18:38.853Z,1.10
2022-12-16T08:21:24.329Z,1.10
2022-12-16T08:24:09.814Z,1.10
2022-12-16T08:26:55.444Z,1.40
2022-12-16T08:29:45.274Z,1.20
2022-12-16T08:32:33.342Z,1.10
2022-12-16T08:35:19.945Z,1.00
2022-12-16T08:38:10.583Z,1.20
2022-12-16T08:41:00.610Z,1.20
2022-12-16T08:43:49.776Z,1.30
2022-12-16T08:46:35.376Z,1.50
2022-12-16T08:49:22.977Z,1.50
2022-12-16T08:52:09.295Z,1.50
2022-12-16T08:54:54.922Z,1.60
2022-12-16T08:57:40.990Z,1.60
2022-12-16T09:00:27.731Z,1.50
2022-12-16T09:03:14.312Z,1.30
2022-12-16T09:06:02.544Z,1.20
2022-12-16T09:08:48.625Z,1.10
2022-12-16T09:11:34.661Z,1.20
2022-12-16T09:14:20.381Z,1.10
2022-12-16T09:17:06.913Z,1.10
2022-12-16T09:19:52.526Z,1.20
2022-12-16T09:22:41.576Z,1.30
2022-12-16T09:25:27.675Z,1.40
2022-12-16T09:28:13.388Z,1.30
2022-12-16T09:30:58.934Z,1.40
2022-12-16T09:33:44.537Z,1.40
2022-12-16T09:36:30.167Z,1.40
2022-12-16T09:39:17.302Z,1.40
2022-12-16T09:42:04.362Z,1.30
2022-12-16T09:45:07.000Z,1.40
2022-12-16T09:48:02.028Z,1.50
2022-12-16T09:50:49.687Z,1.60
2022-12-16T09:53:50.593Z,1.40
2022-12-16T09:56:50.991Z,1.50
2022-12-16T09:59:43.962Z,1.50
2022-12-16T10:02:31.126Z,1.60
2022-12-16T10:05:18.377Z,1.40
2022-12-16T10:08:18.772Z,1.30
2022-12-16T10:11:12.855Z,1.20
2022-12-16T10:14:07.194Z,1.20
2022-12-16T10:16:59.656Z,1.40
2022-12-16T10:19:56.213Z,1.50
2022-12-16T10:22:49.922Z,1.40
2022-12-16T10:25:39.829Z,1.30
2022-12-16T10:28:35.345Z,1.40
2022-12-16T10:31:31.826Z,1.40
2022-12-16T10:34:17.746Z,1.60
2022-12-16T10:37:10.962Z,1.60
2022-12-16T10:40:01.681Z,1.70
2022-12-16T10:42:49.413Z,1.60
2022-12-16T10:45:39.882Z,1.60
2022-12-16T10:48:28.979Z,1.80
2022-12-16T10:51:15.164Z,1.90
2022-12-16T10:54:01.107Z,1.90
2022-12-16T10:57:05.736Z,1.90
2022-12-16T10:59:56.855Z,1.90
2022-12-16T11:02:45.503Z,1.90
2022-12-16T11:05:51.309Z,1.80
2022-12-16T11:08:55.670Z,1.90
2022-12-16T11:11:44.594Z,2.10
2022-12-16T11:14:50.344Z,2.20
2022-12-16T11:17:46.652Z,1.90
2022-12-16T11:20:36.466Z,2.00
2022-12-16T11:23:35.324Z,1.90
2022-12-16T11:26:35.871Z,1.80
2022-12-16T11:29:29.813Z,1.90
2022-12-16T11:32:20.257Z,2.00
2022-12-16T11:35:11.215Z,2.20
2022-12-16T11:37:56.143Z,2.30
2022-12-16T11:40:43.746Z,2.20
2022-12-16T11:43:33.624Z,2.20
2022-12-16T11:46:23.620Z,2.40
2022-12-16T11:49:14.423Z,2.50
2022-12-16T11:52:28.149Z,2.60
2022-12-16T11:55:17.053Z,2.80
2022-12-16T11:58:09.201Z,2.80
2022-12-16T12:01:01.565Z,2.80
2022-12-16T12:03:55.751Z,2.80
2022-12-16T12:06:48.788Z,2.70
2022-12-16T12:09:37.852Z,2.80
2022-12-16T12:12:33.471Z,3.00
2022-12-16T12:15:31.486Z,3.00
2022-12-16T12:18:29.338Z,3.10
2022-12-16T12:21:21.858Z,3.10
2022-12-16T12:24:18.523Z,3.20
2022-12-16T12:27:13.654Z,3.30
2022-12-16T12:30:16.572Z,3.50
2022-12-16T12:33:14.599Z,3.30
2022-12-16T12:36:12.201Z,3.50
2022-12-16T12:39:06.830Z,3.60
2022-12-16T12:42:08.470Z,3.60
2022-12-16T12:45:07.494Z,3.50
2022-12-16T12:48:02.210Z,3.50
2022-12-16T12:50:56.250Z,3.60
2022-12-16T12:53:51.067Z,3.40
2022-12-16T12:56:46.647Z,3.50
2022-12-16T12:59:40.456Z,3.40
2022-12-16T13:02:33.919Z,3.40
2022-12-16T13:05:24.346Z,3.50
2022-12-16T13:08:11.588Z,3.40
2022-12-16T13:10:57.632Z,3.50
2022-12-16T13:13:53.316Z,3.50
2022-12-16T13:17:25.683Z,3.60
2022-12-16T13:20:13.146Z,3.50
2022-12-16T13:22:58.485Z,3.30
2022-12-16T13:25:57.849Z,3.30
2022-12-16T13:28:46.875Z,3.20
2022-12-16T13:31:33.268Z,3.00
2022-12-16T13:34:24.711Z,3.10
2022-12-16T13:37:22.822Z,3.00
2022-12-16T13:40:23.440Z,2.90
2022-12-16T13:43:14.086Z,2.80
2022-12-16T13:46:02.143Z,2.60
2022-12-16T13:48:57.264Z,2.60
2022-12-16T13:52:15.353Z,2.40
2022-12-16T13:55:06.346Z,2.30
2022-12-16T13:57:57.543Z,2.30
2022-12-16T14:00:47.043Z,2.20
2022-12-16T14:03:40.456Z,2.20
2022-12-16T14:06:31.527Z,2.10
2022-12-16T14:09:22.506Z,2.20
2022-12-16T14:12:16.617Z,2.00
2022-12-16T14:15:10.224Z,1.90
2022-12-16T14:18:04.314Z,1.80
2022-12-16T14:20:58.705Z,1.90
2022-12-16T14:24:03.628Z,1.80
2022-12-16T14:26:53.260Z,1.90
2022-12-16T14:29:42.083Z,1.90
2022-12-16T14:32:40.265Z,1.90
2022-12-16T14:35:34.875Z,1.90
2022-12-16T14:38:42.098Z,1.80
2022-12-16T14:41:32.584Z,1.70
2022-12-16T14:44:18.594Z,1.60
2022-12-16T14:47:09.189Z,1.70
2022-12-16T14:50:20.854Z,1.60
2022-12-16T14:53:07.891Z,1.60
2022-12-16T14:55:54.179Z,1.40
2022-12-16T14:58:42.065Z,1.50
2022-12-16T15:01:32.746Z,1.30
2022-12-16T15:04:21.378Z,1.20
2022-12-16T15:07:09.346Z,1.20
2022-12-16T15:10:00.297Z,1.30
2022-12-16T15:12:49.654Z,1.00
2022-12-16T15:15:41.551Z,0.90
2022-12-16T15:18:36.482Z,0.90
2022-12-16T15:21:22.588Z,0.70
2022-12-16T15:24:08.221Z,0.70
2022-12-16T15:26:55.486Z,0.50
2022-12-16T15:29:51.599Z,0.40
2022-12-16T15:32:52.174Z,0.30
2022-12-16T15:35:48.281Z,0.30
2022-12-16T15:38:45.685Z,0.20
2022-12-16T15:41:41.365Z,0.10
2022-12-16T15:44:45.171Z,0.00
2022-12-16T15:47:40.908Z,0.00
2022-12-16T15:50:31.725Z,-0.10
2022-12-16T15:53:46.326Z,-0.20
2022-12-16T15:56:36.918Z,-0.30
2022-12-16T15:59:43.756Z,-0.30
2022-12-16T16:02:34.790Z,-0.40
2022-12-16T16:05:20.844Z,-0.40
2022-12-16T16:08:06.483Z,-0.40
2022-12-16T16:10:52.490Z,-0.40
2022-12-16T16:13:38.151Z,-0.50
2022-12-16T16:16:27.843Z,-0.50
2022-12-16T16:19:13.474Z,-0.50
2022-12-16T16:21:59.334Z,-0.50
2022-12-16T16:24:45.193Z,-0.50
2022-12-16T16:27:32.942Z,-0.40
2022-12-16T16:30:19.440Z,-0.50
2022-12-16T16:33:21.129Z,-0.60
2022-12-16T16:36:18.619Z,-0.60
2022-12-16T16:39:04.440Z,-0.70
2022-12-16T16:41:46.574Z,-0.80
2022-12-16T16:44:32.340Z,-0.90
2022-12-16T16:47:18.438Z,-1.00
2022-12-16T16:50:06.232Z,-1.00
2022-12-16T16:52:52.373Z,-1.10
2022-12-16T16:55:40.669Z,-1.00
2022-12-16T16:58:30.994Z,-1.00
2022-12-16T17:01:17.273Z,-1.10
2022-12-16T17:04:03.243Z,-1.20
2022-12-16T17:06:51.207Z,-1.30
2022-12-16T17:09:36.882Z,-1.30
2022-12-16T17:12:36.467Z,-1.20
2022-12-16T17:15:33.613Z,-1.20
2022-12-16T17:18:19.609Z,-1.20
2022-12-16T17:21:05.071Z,-1.30
2022-12-16T17:23:52.493Z,-1.30
2022-12-16T17:26:38.850Z,-1.40
2022-12-16T17:29:20.966Z,-1.40
2022-12-16T17:32:08.879Z,-1.40
2022-12-16T17:34:53.826Z,-1.40
2022-12-16T17:37:39.690Z,-1.50
2022-12-16T17:40:28.409Z,-1.40
2022-12-16T17:43:14.008Z,-1.50
2022-12-16T17:46:07.982Z,-1.50
2022-12-16T17:48:53.829Z,-1.60
2022-12-16T17:51:39.350Z,-1.60
2022-12-16T17:54:29.296Z,-1.60
2022-12-16T17:57:16.806Z,-1.70
2022-12-16T18:00:03.867Z,-1.70
2022-12-16T18:02:58.362Z,-1.70
2022-12-16T18:05:45.143Z,-1.60
2022-12-16T18:08:31.592Z,-1.50
2022-12-16T18:11:17.594Z,-1.50
2022-12-16T18:14:04.703Z,-1.40
2022-12-16T18:16:50.401Z,-1.40
2022-12-16T18:19:35.854Z,-1.40
2022-12-16T18:22:21.774Z,-1.50
2022-12-16T18:25:07.410Z,-1.40
2022-12-16T18:27:55.100Z,-1.40
2022-12-16T18:30:42.148Z,-1.40
2022-12-16T18:33:32.504Z,-1.40
2022-12-16T18:36:18.707Z,-1.40
2022-12-16T18:39:04.297Z,-1.40
2022-12-16T18:41:49.713Z,-1.40
2022-12-16T18:44:35.253Z,-1.40
2022-12-16T18:47:22.464Z,-1.40
2022-12-16T18:50:08.986Z,-1.40
2022-12-16T18:52:54.547Z,-1.40
2022-12-16T18:55:40.257Z,-1.40
2022-12-16T18:58:50.301Z,-1.30
2022-12-16T19:01:31.592Z,-1.30
2022-12-16T19:04:18.504Z,-1.30
2022-12-16T19:07:04.491Z,-1.30
2022-12-16T19:09:49.963Z,-1.30
2022-12-16T19:12:35.404Z,-1.30
2022-12-16T19:15:20.975Z,-1.30
2022-12-16T19:18:06.429Z,-1.40
2022-12-16T19:20:53.095Z,-1.40
2022-12-16T19:23:38.934Z,-1.40
2022-12-16T19:26:24.503Z,-1.30
2022-12-16T19:29:10.640Z,-1.30
2022-12-16T19:31:56.291Z,-1.30
2022-12-16T19:34:42.207Z,-1.20
2022-12-16T19:37:29.489Z,-1.10
2022-12-16T19:40:14.956Z,-1.10
2022-12-16T19:43:00.448Z,-1.10
2022-12-16T19:45:45.936Z,-1.10
2022-12-16T19:48:31.604Z,-1.10
2022-12-16T19:51:17.611Z,-1.10
2022-12-16T19:54:01.532Z,-1.20
2022-12-16T19:56:47.875Z,-1.10
2022-12-16T19:59:33.487Z,-1.20
2022-12-16T20:02:19.108Z,-1.10
2022-12-16T20:05:04.875Z,-1.10
2022-12-16T20:07:50.442Z,-1.20
2022-12-16T20:10:38.817Z,-1.20
2022-12-16T20:13:30.067Z,-1.20
2022-12-16T20:16:20.317Z,-1.30
2022-12-16T20:19:17.288Z,-1.20
2022-12-16T20:22:06.840Z,-1.20
2022-12-16T20:24:56.184Z,-1.20
2022-12-16T20:27:43.857Z,-1.20
2022-12-16T20:30:30.325Z,-1.20
2022-12-16T20:33:15.846Z,-1.20
2022-12-16T20:36:01.318Z,-1.20
2022-12-16T20:38:46.883Z,-1.20
2022-12-16T20:41:32.558Z,-1.20
2022-12-16T20:44:19.739Z,-1.10
2022-12-16T20:47:05.281Z,-1.20
2022-12-16T20:49:50.803Z,-1.10
2022-12-16T20:52:37.725Z,-1.20
2022-12-16T20:55:24.304Z,-1.20
2022-12-16T20:58:10.494Z,-1.20
2022-12-16T21:00:57.885Z,-1.20
2022-12-16T21:03:44.072Z,-1.10
2022-12-16T21:06:30.255Z,-1.10
2022-12-16T21:09:17.245Z,-1.10
2022-12-16T21:12:02.977Z,-1.00
2022-12-16T21:14:48.414Z,-1.00
2022-12-16T21:17:35.544Z,-1.00
2022-12-16T21:20:21.726Z,-1.00
2022-12-16T21:23:03.847Z,-1.00
2022-12-16T21:25:49.785Z,-1.10
2022-12-16T21:28:35.523Z,-1.10
2022-12-16T21:31:17.619Z,-1.20
2022-12-16T21:34:04.583Z,-1.20
2022-12-16T21:36:50.142Z,-1.20
2022-12-16T21:39:36.058Z,-1.20
2022-12-16T21:42:22.098Z,-1.10
2022-12-16T21:45:07.710Z,-1.10
2022-12-16T21:47:53.202Z,-1.10
2022-12-16T21:50:42.886Z,-1.10
2022-12-16T21:53:28.965Z,-1.10
2022-12-16T21:56:15.431Z,-1.10
2022-12-16T21:59:01.519Z,-1.20
2022-12-16T22:01:43.702Z,-1.30
2022-12-16T22:04:29.387Z,-1.40
2022-12-16T22:07:16.579Z,-1.40
2022-12-16T22:10:01.978Z,-1.50
2022-12-16T22:12:47.659Z,-1.60
2022-12-16T22:15:33.491Z,-1.70
2022-12-16T22:18:18.907Z,-1.70
2022-12-16T22:21:15.234Z,-1.90
2022-12-16T22:24:02.415Z,-2.00
2022-12-16T22:26:48.083Z,-2.10
2022-12-16T22:29:45.204Z,-2.20
2022-12-16T22:32:30.789Z,-2.20
2022-12-16T22:35:16.560Z,-2.30
2022-12-16T22:38:02.075Z,-2.50
2022-12-16T22:40:49.226Z,-2.50
2022-12-16T22:43:40.302Z,-2.60
2022-12-16T22:46:26.365Z,-2.70
2022-12-16T22:49:11.932Z,-2.70
2022-12-16T22:51:57.398Z,-2.80
2022-12-16T22:54:43.053Z,-2.80
2022-12-16T22:57:30.248Z,-2.80
2022-12-16T23:00:15.732Z,-2.80
2022-12-16T23:03:01.457Z,-2.80
2022-12-16T23:05:46.994Z,-2.90
2022-12-16T23:08:32.467Z,-2.90
2022-12-16T23:11:19.022Z,-2.90
2022-12-16T23:14:06.142Z,-3.00
2022-12-16T23:16:51.639Z,-3.00
2022-12-16T23:19:38.996Z,-3.10
2022-12-16T23:22:24.350Z,-3.10
2022-12-16T23:25:10.146Z,-3.20
2022-12-16T23:27:55.725Z,-3.20
2022-12-16T23:30:44.102Z,-3.30
2022-12-16T23:33:29.600Z,-3.30
2022-12-16T23:36:18.148Z,-3.30
2022-12-16T23:39:03.674Z,-3.40
2022-12-16T23:41:49.256Z,-3.40
2022-12-16T23:44:33.972Z,-3.40
2022-12-16T23:47:21.086Z,-3.50
2022-12-16T23:50:11.152Z,-3.50
2022-12-16T23:53:09.672Z,-3.50
2022-12-16T23:55:55.687Z,-3.60
2022-12-16T23:58:41.265Z,-3.60
